createdAt,value
2023-01-19T00:01:42.395Z,96519.72
2023-01-19T00:04:10.897Z,96520.88
2023-01-19T00:06:39.369Z,96519.25
2023-01-19T00:09:07.795Z,96521.53
2023-01-19T00:11:36.634Z,96528.66
2023-01-19T00:14:05.621Z,96533.69
2023-01-19T00:16:35.465Z,96532.09
2023-01-19T00:19:04.301Z,96534.03
2023-01-19T00:21:32.755Z,96539.56
2023-01-19T00:24:01.256Z,96542.63
2023-01-19T00:26:29.663Z,96542.19
2023-01-19T00:28:58.221Z,96540.91
2023-01-19T00:31:29.946Z,96545.25
2023-01-19T00:33:59.761Z,96544.47
2023-01-19T00:36:28.152Z,96555.47
2023-01-19T00:38:56.665Z,96550.31
2023-01-19T00:41:39.452Z,96549.97
2023-01-19T00:44:08.156Z,96550.78
2023-01-19T00:46:36.655Z,96560.97
2023-01-19T00:49:07.083Z,96553.88
2023-01-19T00:51:35.636Z,96564.88
2023-01-19T00:54:04.952Z,96557.75
2023-01-19T00:56:33.504Z,96554.19
2023-01-19T00:59:01.878Z,96562.47
2023-01-19T01:01:45.381Z,96567.63
2023-01-19T01:04:16.374Z,96563.59
2023-01-19T01:06:44.766Z,96564.41
2023-01-19T01:09:13.214Z,96560.03
2023-01-19T01:11:42.397Z,96570.25
2023-01-19T01:14:12.175Z,96566.69
2023-01-19T01:16:41.533Z,96567.50
2023-01-19T01:19:10.322Z,96563.94
2023-01-19T01:21:40.126Z,96565.09
2023-01-19T01:24:10.502Z,96568.63
2023-01-19T01:26:39.572Z,96573.34
2023-01-19T01:29:08.570Z,96574.94
2023-01-19T01:31:37.023Z,96567.03
2023-01-19T01:34:05.572Z,96575.63
2023-01-19T01:36:34.129Z,96572.06
2023-01-19T01:39:04.719Z,96575.63
2023-01-19T01:41:33.290Z,96574.81
2023-01-19T01:44:06.127Z,96578.72
2023-01-19T01:46:35.098Z,96577.91
2023-01-19T01:49:07.347Z,96581.47
2023-01-19T01:51:40.080Z,96582.59
2023-01-19T01:54:16.539Z,96586.16
2023-01-19T01:56:47.751Z,96587.31
2023-01-19T01:59:26.032Z,96586.84
2023-01-19T02:02:19.937Z,96591.19
2023-01-19T02:04:51.612Z,96586.84
2023-01-19T02:07:45.316Z,96592.34
2023-01-19T02:10:33.219Z,96599.00
2023-01-19T02:13:19.421Z,96594.63
2023-01-19T02:15:48.059Z,96610.00
2023-01-19T02:18:16.686Z,96599.00
2023-01-19T02:20:51.925Z,96601.75
2023-01-19T02:23:31.670Z,96604.03
2023-01-19T02:26:01.690Z,96605.63
2023-01-19T02:28:31.905Z,96606.78
2023-01-19T02:31:00.373Z,96608.72
2023-01-19T02:33:29.518Z,96608.72
2023-01-19T02:35:58.546Z,96616.19
2023-01-19T02:38:30.081Z,96610.66
2023-01-19T02:41:02.021Z,96611.00
2023-01-19T02:43:32.077Z,96606.31
2023-01-19T02:46:00.737Z,96605.50
2023-01-19T02:48:29.160Z,96607.44
2023-01-19T02:51:04.214Z,96610.19
2023-01-19T02:54:13.959Z,96610.19
2023-01-19T02:56:58.512Z,96608.25
2023-01-19T02:59:41.104Z,96616.84
2023-01-19T03:02:22.289Z,96612.16
2023-01-19T03:05:06.509Z,96617.66
2023-01-19T03:07:50.390Z,96612.16
2023-01-19T03:10:27.159Z,96610.53
2023-01-19T03:13:03.316Z,96615.22
2023-01-19T03:15:38.487Z,96615.56
2023-01-19T03:18:11.268Z,96619.13
2023-01-19T03:20:41.439Z,96617.50
2023-01-19T03:23:13.827Z,96619.13
2023-01-19T03:25:47.474Z,96619.47
2023-01-19T03:28:19.741Z,96621.41
2023-01-19T03:31:00.182Z,96626.91
2023-01-19T03:33:32.681Z,96621.41
2023-01-19T03:36:06.413Z,96628.53
2023-01-19T03:38:38.297Z,96637.13
2023-01-19T03:41:11.835Z,96625.31
2023-01-19T03:43:41.690Z,96633.56
2023-01-19T03:46:11.722Z,96633.56
2023-01-19T03:48:40.351Z,96634.38
2023-01-19T03:51:10.867Z,96633.56
2023-01-19T03:53:39.298Z,96640.19
2023-01-19T03:56:18.888Z,96642.94
2023-01-19T03:58:47.579Z,96644.09
2023-01-19T04:01:17.231Z,96641.34
2023-01-19T04:03:47.123Z,96644.09
2023-01-19T04:06:16.078Z,96640.88
2023-01-19T04:08:44.870Z,96640.88
2023-01-19T04:11:14.617Z,96641.69
2023-01-19T04:13:43.269Z,96637.78
2023-01-19T04:16:12.367Z,96640.88
2023-01-19T04:18:42.262Z,96637.31
2023-01-19T04:21:10.948Z,96635.38
2023-01-19T04:23:39.322Z,96633.75
2023-01-19T04:26:09.490Z,96632.16
2023-01-19T04:28:39.420Z,96631.00
2023-01-19T04:31:08.523Z,96633.75
2023-01-19T04:33:37.086Z,96639.25
2023-01-19T04:36:06.311Z,96639.25
2023-01-19T04:38:35.032Z,96629.38
2023-01-19T04:41:03.463Z,96635.69
2023-01-19T04:43:31.964Z,96632.16
2023-01-19T04:46:02.172Z,96626.63
2023-01-19T04:48:30.643Z,96640.41
2023-01-19T04:50:59.068Z,96632.16
2023-01-19T04:53:27.510Z,96637.19
2023-01-19T04:55:56.368Z,96642.34
2023-01-19T04:58:24.747Z,96641.53
2023-01-19T05:00:53.244Z,96635.22
2023-01-19T05:03:24.955Z,96641.53
2023-01-19T05:05:54.221Z,96643.81
2023-01-19T05:08:22.699Z,96650.94
2023-01-19T05:10:51.250Z,96656.44
2023-01-19T05:13:19.749Z,96660.31
2023-01-19T05:15:48.193Z,96665.81
2023-01-19T05:18:16.785Z,96654.81
2023-01-19T05:20:46.801Z,96662.28
2023-01-19T05:23:15.271Z,96664.22
2023-01-19T05:25:44.536Z,96665.81
2023-01-19T05:28:13.123Z,96667.44
2023-01-19T05:30:41.619Z,96671.13
2023-01-19T05:33:10.076Z,96662.34
2023-01-19T05:35:38.537Z,96670.22
2023-01-19T05:38:08.291Z,96668.16
2023-01-19T05:40:36.650Z,96666.22
2023-01-19T05:43:05.432Z,96670.44
2023-01-19T05:45:34.309Z,96663.81
2023-01-19T05:48:02.956Z,96672.16
2023-01-19T05:50:31.617Z,96669.00
2023-01-19T05:53:01.088Z,96675.94
2023-01-19T05:55:31.148Z,96674.78
2023-01-19T05:57:59.609Z,96672.81
2023-01-19T06:00:29.215Z,96674.88
2023-01-19T06:02:57.773Z,96675.91
2023-01-19T06:05:26.293Z,96680.97
2023-01-19T06:07:57.390Z,96683.97
2023-01-19T06:10:25.954Z,96677.38
2023-01-19T06:12:55.711Z,96680.72
2023-01-19T06:15:24.196Z,96680.94
2023-01-19T06:17:52.636Z,96684.34
2023-01-19T06:20:21.047Z,96682.84
2023-01-19T06:22:49.503Z,96682.50
2023-01-19T06:25:18.119Z,96687.31
2023-01-19T06:27:46.577Z,96682.25
2023-01-19T06:30:17.080Z,96685.56
2023-01-19T06:32:45.490Z,96696.03
2023-01-19T06:35:14.330Z,96691.41
2023-01-19T06:37:42.776Z,96685.19
2023-01-19T06:40:14.375Z,96695.06
2023-01-19T06:42:42.958Z,96693.91
2023-01-19T06:45:11.861Z,96688.41
2023-01-19T06:47:41.615Z,96697.84
2023-01-19T06:50:11.669Z,96696.22
2023-01-19T06:52:42.403Z,96699.34
2023-01-19T06:55:11.891Z,96699.00
2023-01-19T06:57:40.691Z,96704.53
2023-01-19T07:00:11.651Z,96709.59
2023-01-19T07:02:43.702Z,96709.94
2023-01-19T07:05:14.402Z,96708.34
2023-01-19T07:07:44.790Z,96709.41
2023-01-19T07:10:15.639Z,96712.88
2023-01-19T07:12:46.459Z,96716.31
2023-01-19T07:15:15.576Z,96721.75
2023-01-19T07:17:45.463Z,96723.94
2023-01-19T07:20:15.031Z,96730.19
2023-01-19T07:22:45.697Z,96730.75
2023-01-19T07:25:14.822Z,96729.75
2023-01-19T07:27:44.865Z,96725.59
2023-01-19T07:30:16.123Z,96735.75
2023-01-19T07:32:45.981Z,96733.66
2023-01-19T07:35:15.440Z,96732.75
2023-01-19T07:37:43.911Z,96734.59
2023-01-19T07:40:13.184Z,96733.19
2023-01-19T07:42:46.469Z,96742.88
2023-01-19T07:45:15.196Z,96744.69
2023-01-19T07:47:46.264Z,96747.22
2023-01-19T07:50:14.902Z,96742.63
2023-01-19T07:52:43.708Z,96750.22
2023-01-19T07:55:12.255Z,96748.69
2023-01-19T07:57:40.774Z,96748.47
2023-01-19T08:00:10.635Z,96753.72
2023-01-19T08:02:42.150Z,96759.81
2023-01-19T08:05:13.261Z,96761.19
2023-01-19T08:07:41.666Z,96763.66
2023-01-19T08:10:11.133Z,96772.47
2023-01-19T08:12:39.562Z,96770.28
2023-01-19T08:15:09.371Z,96774.38
2023-01-19T08:17:37.941Z,96780.56
2023-01-19T08:20:09.222Z,96781.25
2023-01-19T08:22:39.008Z,96781.94
2023-01-19T08:25:07.904Z,96790.88
2023-01-19T08:27:36.311Z,96793.63
2023-01-19T08:30:05.522Z,96787.19
2023-01-19T08:32:33.935Z,96784.44
2023-01-19T08:35:02.425Z,96781.00
2023-01-19T08:37:32.666Z,96785.34
2023-01-19T08:40:03.905Z,96779.16
2023-01-19T08:42:32.365Z,96778.50
2023-01-19T08:45:00.850Z,96772.66
2023-01-19T08:47:30.205Z,96777.47
2023-01-19T08:49:58.717Z,96786.22
2023-01-19T08:52:29.262Z,96787.16
2023-01-19T08:54:57.741Z,96783.38
2023-01-19T08:57:28.246Z,96781.56
2023-01-19T08:59:56.673Z,96783.63
2023-01-19T09:02:25.166Z,96778.59
2023-01-19T09:04:53.651Z,96777.44
2023-01-19T09:07:22.153Z,96775.81
2023-01-19T09:09:50.570Z,96778.59
2023-01-19T09:12:18.958Z,96782.50
2023-01-19T09:14:48.855Z,96776.16
2023-01-19T09:17:18.099Z,96786.41
2023-01-19T09:19:46.519Z,96784.44
2023-01-19T09:22:14.979Z,96788.34
2023-01-19T09:24:43.416Z,96785.25
2023-01-19T09:27:11.883Z,96785.25
2023-01-19T09:29:40.397Z,96786.41
2023-01-19T09:32:11.293Z,96787.06
2023-01-19T09:34:39.691Z,96786.59
2023-01-19T09:37:08.871Z,96792.13
2023-01-19T09:39:37.592Z,96792.47
2023-01-19T09:42:24.119Z,96805.44
2023-01-19T09:44:54.364Z,96810.97
2023-01-19T09:47:28.182Z,96808.19
2023-01-19T09:50:02.180Z,96811.75
2023-01-19T09:52:32.698Z,96810.97
2023-01-19T09:55:01.155Z,96809.47
2023-01-19T09:57:30.226Z,96810.16
2023-01-19T09:59:59.602Z,96814.72
2023-01-19T10:02:38.077Z,96808.94
2023-01-19T10:05:22.355Z,96812.72
2023-01-19T10:08:06.092Z,96812.72
2023-01-19T10:10:36.780Z,96805.59
2023-01-19T10:13:29.899Z,96799.28
2023-01-19T10:16:08.354Z,96803.19
2023-01-19T10:18:47.446Z,96805.13
2023-01-19T10:21:20.257Z,96809.50
2023-01-19T10:23:52.159Z,96801.56
2023-01-19T10:26:25.388Z,96802.03
2023-01-19T10:28:58.812Z,96800.09
2023-01-19T10:31:27.369Z,96794.56
2023-01-19T10:33:57.238Z,96798.59
2023-01-19T10:36:30.166Z,96793.09
2023-01-19T10:38:59.177Z,96789.19
2023-01-19T10:41:37.516Z,96785.63
2023-01-19T10:44:09.432Z,96790.47
2023-01-19T10:46:43.252Z,96792.41
2023-01-19T10:49:25.583Z,96788.50
2023-01-19T10:51:55.266Z,96794.81
2023-01-19T10:54:24.648Z,96790.94
2023-01-19T10:56:56.519Z,96784.59
2023-01-19T10:59:33.787Z,96792.88
2023-01-19T11:02:20.692Z,96792.06
2023-01-19T11:04:53.902Z,96783.81
2023-01-19T11:07:24.502Z,96789.31
2023-01-19T11:10:14.097Z,96776.69
2023-01-19T11:12:44.309Z,96775.88
2023-01-19T11:15:17.468Z,96773.44
2023-01-19T11:17:48.148Z,96776.69
2023-01-19T11:20:24.408Z,96784.59
2023-01-19T11:23:05.526Z,96779.09
2023-01-19T11:25:36.652Z,96775.19
2023-01-19T11:28:06.164Z,96781.50
2023-01-19T11:30:36.073Z,96785.06
2023-01-19T11:33:06.126Z,96778.75
2023-01-19T11:35:38.976Z,96784.28
2023-01-19T11:38:15.200Z,96779.91
2023-01-19T11:40:51.734Z,96778.28
2023-01-19T11:43:21.768Z,96781.25
2023-01-19T11:45:50.409Z,96781.13
2023-01-19T11:48:26.521Z,96772.38
2023-01-19T11:51:01.556Z,96775.47
2023-01-19T11:53:34.258Z,96784.88
2023-01-19T11:56:05.708Z,96770.63
2023-01-19T11:58:39.576Z,96764.09
2023-01-19T12:01:20.812Z,96754.75
2023-01-19T12:03:56.124Z,96763.03
2023-01-19T12:06:30.491Z,96761.41
2023-01-19T12:09:03.377Z,96761.88
2023-01-19T12:11:35.675Z,96767.06
2023-01-19T12:14:05.332Z,96774.19
2023-01-19T12:16:35.545Z,96760.06
2023-01-19T12:19:07.768Z,96772.69
2023-01-19T12:21:38.788Z,96771.56
2023-01-19T12:24:16.235Z,96768.47
2023-01-19T12:26:52.341Z,96770.88
2023-01-19T12:29:23.349Z,96776.81
2023-01-19T12:32:19.486Z,96764.66
2023-01-19T12:34:49.390Z,96772.94
2023-01-19T12:37:40.526Z,96769.84
2023-01-19T12:40:27.371Z,96767.88
2023-01-19T12:43:01.198Z,96763.19
2023-01-19T12:45:34.764Z,96766.75
2023-01-19T12:48:04.950Z,96769.16
2023-01-19T12:50:37.643Z,96758.13
2023-01-19T12:53:18.334Z,96757.31
2023-01-19T12:55:47.626Z,96756.53
2023-01-19T12:58:18.958Z,96763.97
2023-01-19T13:00:50.516Z,96759.63
2023-01-19T13:03:45.393Z,96757.66
2023-01-19T13:06:14.024Z,96752.16
2023-01-19T13:09:01.592Z,96752.50
2023-01-19T13:11:34.304Z,96746.97
2023-01-19T13:14:35.651Z,96747.44
2023-01-19T13:17:33.512Z,96743.06
2023-01-19T13:20:18.822Z,96756.53
2023-01-19T13:23:24.865Z,96757.31
2023-01-19T13:26:02.625Z,96758.25
2023-01-19T13:28:40.137Z,96749.19
2023-01-19T13:31:09.941Z,96749.66
2023-01-19T13:33:52.637Z,96758.25
2023-01-19T13:36:28.636Z,96757.13
2023-01-19T13:38:59.322Z,96754.38
2023-01-19T13:41:33.145Z,96762.28
2023-01-19T13:44:04.291Z,96761.50
2023-01-19T13:46:34.628Z,96760.69
2023-01-19T13:49:10.762Z,96762.63
2023-01-19T13:51:39.438Z,96763.78
2023-01-19T13:54:17.217Z,96762.97
2023-01-19T13:56:51.013Z,96764.91
2023-01-19T13:59:19.490Z,96764.44
2023-01-19T14:01:49.154Z,96769.97
2023-01-19T14:04:29.068Z,96768.34
2023-01-19T14:06:59.711Z,96768.34
2023-01-19T14:09:28.234Z,96768.34
2023-01-19T14:12:12.057Z,96773.06
2023-01-19T14:14:41.133Z,96779.38
2023-01-19T14:17:23.069Z,96778.22
2023-01-19T14:19:52.799Z,96777.09
2023-01-19T14:22:21.563Z,96779.50
2023-01-19T14:24:50.123Z,96773.19
2023-01-19T14:27:25.142Z,96775.59
2023-01-19T14:29:54.836Z,96779.97
2023-01-19T14:32:27.750Z,96774.13
2023-01-19T14:35:15.375Z,96775.88
2023-01-19T14:37:48.447Z,96777.59
2023-01-19T14:40:19.895Z,96779.34
2023-01-19T14:42:53.939Z,96768.31
2023-01-19T14:45:23.592Z,96775.56
2023-01-19T14:47:57.671Z,96783.50
2023-01-19T14:50:29.001Z,96776.72
2023-01-19T14:53:01.190Z,96783.59
2023-01-19T14:55:34.353Z,96780.72
2023-01-19T14:58:11.480Z,96773.44
2023-01-19T15:00:40.401Z,96777.81
2023-01-19T15:03:09.888Z,96777.47
2023-01-19T15:05:38.652Z,96775.31
2023-01-19T15:08:08.728Z,96779.47
2023-01-19T15:10:37.491Z,96772.13
2023-01-19T15:13:07.395Z,96784.59
2023-01-19T15:15:36.530Z,96773.34
2023-01-19T15:18:07.506Z,96772.22
2023-01-19T15:20:35.936Z,96773.94
2023-01-19T15:23:04.392Z,96777.97
2023-01-19T15:25:34.920Z,96780.06
2023-01-19T15:28:04.080Z,96775.00
2023-01-19T15:30:34.269Z,96776.59
2023-01-19T15:33:03.009Z,96778.22
2023-01-19T15:35:31.539Z,96770.75
2023-01-19T15:38:00.011Z,96773.50
2023-01-19T15:40:28.625Z,96780.97
2023-01-19T15:42:57.098Z,96772.69
2023-01-19T15:45:47.897Z,96775.81
2023-01-19T15:48:16.558Z,96776.16
2023-01-19T15:50:46.037Z,96777.97
2023-01-19T15:53:16.682Z,96779.47
2023-01-19T15:55:46.111Z,96788.06
2023-01-19T15:58:14.714Z,96777.72
2023-01-19T16:00:44.590Z,96783.91
2023-01-19T16:03:13.447Z,96770.31
2023-01-19T16:05:43.397Z,96779.94
2023-01-19T16:08:12.786Z,96777.75
2023-01-19T16:10:41.740Z,96792.53
2023-01-19T16:13:11.706Z,96778.97
2023-01-19T16:15:42.186Z,96785.16
2023-01-19T16:18:12.092Z,96789.72
2023-01-19T16:20:40.931Z,96792.00
2023-01-19T16:23:14.853Z,96789.94
2023-01-19T16:25:44.212Z,96799.34
2023-01-19T16:28:12.945Z,96790.94
2023-01-19T16:30:41.633Z,96795.69
2023-01-19T16:33:13.732Z,96797.25
2023-01-19T16:35:42.408Z,96790.94
2023-01-19T16:38:11.334Z,96786.25
2023-01-19T16:40:39.895Z,96789.81
2023-01-19T16:43:08.427Z,96789.47
2023-01-19T16:45:40.617Z,96787.19
2023-01-19T16:48:09.098Z,96783.28
2023-01-19T16:50:38.896Z,96784.88
2023-01-19T16:53:07.396Z,96787.31
2023-01-19T16:55:35.821Z,96788.13
2023-01-19T16:58:04.305Z,96793.28
2023-01-19T17:00:32.778Z,96791.34
2023-01-19T17:03:01.223Z,96793.75
2023-01-19T17:05:29.736Z,96789.06
2023-01-19T17:07:59.631Z,96785.50
2023-01-19T17:10:28.107Z,96789.53
2023-01-19T17:12:56.570Z,96797.00
2023-01-19T17:15:25.018Z,96790.00
2023-01-19T17:17:53.455Z,96789.19
2023-01-19T17:20:21.945Z,96790.00
2023-01-19T17:22:50.386Z,96795.50
2023-01-19T17:25:20.348Z,96787.22
2023-01-19T17:27:48.787Z,96792.75
2023-01-19T17:30:18.126Z,96796.78
2023-01-19T17:32:46.609Z,96794.81
2023-01-19T17:35:15.108Z,96798.06
2023-01-19T17:37:43.592Z,96792.53
2023-01-19T17:40:12.841Z,96798.19
2023-01-19T17:42:43.189Z,96796.22
2023-01-19T17:45:12.068Z,96799.47
2023-01-19T17:47:40.549Z,96808.53
2023-01-19T17:50:10.044Z,96787.28
2023-01-19T17:52:38.700Z,96789.69
2023-01-19T17:55:07.905Z,96796.81
2023-01-19T17:57:36.850Z,96797.63
2023-01-19T18:00:08.405Z,96799.25
2023-01-19T18:02:43.308Z,96797.63
2023-01-19T18:05:14.155Z,96811.44
2023-01-19T18:07:42.696Z,96799.59
2023-01-19T18:10:12.738Z,96794.41
2023-01-19T18:12:41.549Z,96805.44
2023-01-19T18:15:12.486Z,96797.03
2023-01-19T18:17:41.003Z,96802.91
2023-01-19T18:20:11.329Z,96806.78
2023-01-19T18:22:39.938Z,96794.50
2023-01-19T18:25:08.957Z,96801.94
2023-01-19T18:27:37.377Z,96800.34
2023-01-19T18:30:07.000Z,96796.78
2023-01-19T18:32:36.819Z,96801.81
2023-01-19T18:35:06.138Z,96800.56
2023-01-19T18:37:34.667Z,96801.69
2023-01-19T18:40:04.426Z,96801.69
2023-01-19T18:42:34.868Z,96809.50
2023-01-19T18:45:03.921Z,96803.97
2023-01-19T18:47:34.526Z,96810.63
2023-01-19T18:50:04.590Z,96806.28
2023-01-19T18:52:33.317Z,96810.97
2023-01-19T18:55:01.716Z,96808.56
2023-01-19T18:57:30.194Z,96813.72
2023-01-19T18:59:58.680Z,96811.78
2023-01-19T19:02:27.189Z,96810.16
2023-01-19T19:04:55.750Z,96810.16
2023-01-19T19:07:25.586Z,96807.41
2023-01-19T19:09:54.054Z,96807.06
2023-01-19T19:12:22.508Z,96802.38
2023-01-19T19:14:50.913Z,96799.28
2023-01-19T19:17:19.459Z,96801.22
2023-01-19T19:19:47.940Z,96794.56
2023-01-19T19:22:16.531Z,96798.94
2023-01-19T19:24:46.302Z,96803.31
2023-01-19T19:27:14.929Z,96797.78
2023-01-19T19:29:44.886Z,96799.41
2023-01-19T19:32:13.580Z,96799.41
2023-01-19T19:34:42.324Z,96794.38
2023-01-19T19:37:10.787Z,96788.84
2023-01-19T19:39:39.271Z,96790.00
2023-01-19T19:42:09.169Z,96799.19
2023-01-19T19:44:37.714Z,96794.81
2023-01-19T19:47:06.336Z,96800.34
2023-01-19T19:49:34.836Z,96810.22
2023-01-19T19:52:03.451Z,96809.09
2023-01-19T19:54:31.969Z,96800.81
2023-01-19T19:57:00.376Z,96809.09
2023-01-19T19:59:30.138Z,96798.06
2023-01-19T20:01:58.666Z,96807.13
2023-01-19T20:04:27.245Z,96808.28
2023-01-19T20:06:55.771Z,96817.69
2023-01-19T20:09:24.244Z,96824.69
2023-01-19T20:11:52.915Z,96820.31
2023-01-19T20:14:22.407Z,96826.16
2023-01-19T20:16:54.260Z,96823.75
2023-01-19T20:19:22.678Z,96825.69
2023-01-19T20:21:51.234Z,96822.13
2023-01-19T20:24:21.350Z,96826.03
2023-01-19T20:26:52.319Z,96831.53
2023-01-19T20:29:21.844Z,96831.53
2023-01-19T20:31:54.236Z,96826.03
2023-01-19T20:34:24.719Z,96826.03
2023-01-19T20:36:53.934Z,96826.03
2023-01-19T20:39:23.993Z,96830.41
2023-01-19T20:41:52.915Z,96827.66
2023-01-19T20:44:23.528Z,96831.53
2023-01-19T20:46:55.351Z,96837.06
2023-01-19T20:49:24.124Z,96839.81
2023-01-19T20:51:53.388Z,96841.44
2023-01-19T20:54:26.289Z,96842.56
2023-01-19T20:56:55.442Z,96840.97
2023-01-19T20:59:24.444Z,96840.16
2023-01-19T21:01:54.306Z,96839.00
2023-01-19T21:04:23.176Z,96843.72
2023-01-19T21:06:52.143Z,96844.84
2023-01-19T21:09:21.703Z,96845.66
2023-01-19T21:11:50.212Z,96839.34
2023-01-19T21:14:18.600Z,96844.84
2023-01-19T21:16:47.149Z,96842.44
2023-01-19T21:19:17.287Z,96847.16
2023-01-19T21:21:45.748Z,96850.25
2023-01-19T21:24:14.136Z,96854.94
2023-01-19T21:26:42.771Z,96852.53
2023-01-19T21:29:13.222Z,96857.22
2023-01-19T21:31:42.152Z,96859.50
2023-01-19T21:34:10.784Z,96865.84
2023-01-19T21:36:41.727Z,96863.41
2023-01-19T21:39:10.303Z,96871.69
2023-01-19T21:41:40.192Z,96868.91
2023-01-19T21:44:08.898Z,96867.34
2023-01-19T21:46:37.288Z,96862.97
2023-01-19T21:49:08.338Z,96858.59
2023-01-19T21:51:38.060Z,96861.34
2023-01-19T21:54:08.119Z,96873.53
2023-01-19T21:56:37.870Z,96869.16
2023-01-19T21:59:06.725Z,96875.81
2023-01-19T22:01:35.959Z,96874.53
2023-01-19T22:04:04.491Z,96869.34
2023-01-19T22:06:32.990Z,96877.16
2023-01-19T22:09:01.623Z,96869.53
2023-01-19T22:11:31.624Z,96871.81
2023-01-19T22:14:00.835Z,96876.38
2023-01-19T22:16:30.432Z,96884.66
2023-01-19T22:19:01.244Z,96883.03
2023-01-19T22:21:31.455Z,96890.84
2023-01-19T22:24:01.964Z,96886.00
2023-01-19T22:26:34.008Z,96892.63
2023-01-19T22:29:03.172Z,96892.16
2023-01-19T22:31:31.766Z,96892.50
2023-01-19T22:34:00.405Z,96894.44
2023-01-19T22:36:30.505Z,96890.88
2023-01-19T22:39:01.053Z,96890.41
2023-01-19T22:41:32.763Z,96891.53
2023-01-19T22:44:03.034Z,96891.88
2023-01-19T22:46:33.043Z,96895.78
2023-01-19T22:49:02.448Z,96894.16
2023-01-19T22:51:32.343Z,96902.75
2023-01-19T22:54:01.099Z,96901.94
2023-01-19T22:56:32.765Z,96894.81
2023-01-19T22:59:01.391Z,96901.44
2023-01-19T23:01:33.313Z,96888.31
2023-01-19T23:04:04.191Z,96897.72
2023-01-19T23:06:34.359Z,96896.13
2023-01-19T23:09:06.612Z,96901.63
2023-01-19T23:11:38.580Z,96898.38
2023-01-19T23:14:09.530Z,96903.09
2023-01-19T23:16:38.348Z,96909.72
2023-01-19T23:19:07.464Z,96905.38
2023-01-19T23:21:36.852Z,96905.38
2023-01-19T23:24:05.894Z,96908.44
2023-01-19T23:26:38.105Z,96902.94
2023-01-19T23:29:10.603Z,96908.44
2023-01-19T23:31:42.982Z,96906.03
2023-01-19T23:34:13.125Z,96905.22
2023-01-19T23:36:42.989Z,96909.09
2023-01-19T23:39:15.184Z,96913.81
2023-01-19T23:41:45.277Z,96909.91
2023-01-19T23:44:14.222Z,96914.63
2023-01-19T23:46:43.784Z,96921.25
2023-01-19T23:49:12.573Z,96928.38
2023-01-19T23:51:42.096Z,96930.00
2023-01-19T23:54:12.172Z,96925.63
2023-01-19T23:56:42.542Z,96929.53
2023-01-19T23:59:14.177Z,96935.84
